sensor_id;sensor_type;location;lat;lon;timestamp;pressure;altitude;pressure_sealevel;temperature;humidity
30636;BME280;17400;52.392;9.750;2023-11-18T00:00:33;101764.75;;;6.70;100.00
30636;BME280;17400;52.392;9.750;2023-11-18T00:03:04;101763.09;;;6.59;100.00
30636;BME280;17400;52.392;9.750;2023-11-18T00:05:33;101774.53;;;6.61;100.00
30636;BME280;17400;52.392;9.750;2023-11-18T00:08:01;101766.34;;;6.63;100.00
30636;BME280;17400;52.392;9.750;2023-11-18T00:10:29;101765.31;;;6.64;100.00
30636;BME280;17400;52.392;9.750;2023-11-18T00:12:59;101768.00;;;6.64;100.00
30636;BME280;17400;52.392;9.750;2023-11-18T00:15:28;101777.09;;;6.63;100.00
30636;BME280;17400;52.392;9.750;2023-11-18T00:17:56;101771.47;;;6.56;100.00
30636;BME280;17400;52.392;9.750;2023-11-18T00:20:24;101764.22;;;6.57;100.00
30636;BME280;17400;52.392;9.750;2023-11-18T00:22:52;101764.63;;;6.52;100.00
30636;BME280;17400;52.392;9.750;2023-11-18T00:25:20;101757.69;;;6.49;100.00
30636;BME280;17400;52.392;9.750;2023-11-18T00:27:48;101763.53;;;6.45;100.00
30636;BME280;17400;52.392;9.750;2023-11-18T00:30:18;101767.50;;;6.41;100.00
30636;BME280;17400;52.392;9.750;2023-11-18T00:32:46;101758.72;;;6.39;100.00
30636;BME280;17400;52.392;9.750;2023-11-18T00:35:15;101754.63;;;6.34;100.00
30636;BME280;17400;52.392;9.750;2023-11-18T00:37:42;101752.81;;;6.35;100.00
30636;BME280;17400;52.392;9.750;2023-11-18T00:40:10;101751.66;;;6.28;100.00
30636;BME280;17400;52.392;9.750;2023-11-18T00:42:38;101751.09;;;6.24;100.00
30636;BME280;17400;52.392;9.750;2023-11-18T00:45:07;101764.97;;;6.20;100.00
30636;BME280;17400;52.392;9.750;2023-11-18T00:47:36;101766.81;;;6.09;100.00
30636;BME280;17400;52.392;9.750;2023-11-18T00:50:05;101770.34;;;6.00;100.00
30636;BME280;17400;52.392;9.750;2023-11-18T00:52:35;101776.41;;;5.92;100.00
30636;BME280;17400;52.392;9.750;2023-11-18T00:55:06;101781.34;;;5.87;100.00
30636;BME280;17400;52.392;9.750;2023-11-18T00:57:35;101781.63;;;5.84;100.00
30636;BME280;17400;52.392;9.750;2023-11-18T01:00:07;101784.59;;;5.81;100.00
30636;BME280;17400;52.392;9.750;2023-11-18T01:02:37;101786.44;;;5.80;100.00
30636;BME280;17400;52.392;9.750;2023-11-18T01:05:06;101791.38;;;5.75;100.00
30636;BME280;17400;52.392;9.750;2023-11-18T01:07:36;101786.41;;;5.71;100.00
30636;BME280;17400;52.392;9.750;2023-11-18T01:10:04;101793.63;;;5.70;100.00
30636;BME280;17400;52.392;9.750;2023-11-18T01:12:34;101801.97;;;5.67;100.00
30636;BME280;17400;52.392;9.750;2023-11-18T01:15:02;101806.22;;;5.70;100.00
30636;BME280;17400;52.392;9.750;2023-11-18T01:17:30;101795.91;;;5.75;100.00
30636;BME280;17400;52.392;9.750;2023-11-18T01:20:00;101806.34;;;5.78;100.00
30636;BME280;17400;52.392;9.750;2023-11-18T01:22:34;101813.28;;;5.80;100.00
30636;BME280;17400;52.392;9.750;2023-11-18T01:25:03;101827.03;;;5.77;100.00
30636;BME280;17400;52.392;9.750;2023-11-18T01:27:31;101829.84;;;5.76;100.00
30636;BME280;17400;52.392;9.750;2023-11-18T01:30:00;101826.72;;;5.80;100.00
30636;BME280;17400;52.392;9.750;2023-11-18T01:32:28;101829.00;;;5.85;100.00
30636;BME280;17400;52.392;9.750;2023-11-18T01:34:57;101837.47;;;5.80;100.00
30636;BME280;17400;52.392;9.750;2023-11-18T01:37:27;101832.69;;;5.74;100.00
30636;BME280;17400;52.392;9.750;2023-11-18T01:39:55;101826.56;;;5.72;100.00
30636;BME280;17400;52.392;9.750;2023-11-18T01:42:23;101820.38;;;5.72;100.00
30636;BME280;17400;52.392;9.750;2023-11-18T01:44:51;101830.00;;;5.74;100.00
30636;BME280;17400;52.392;9.750;2023-11-18T01:47:19;101824.34;;;5.77;100.00
30636;BME280;17400;52.392;9.750;2023-11-18T01:49:47;101833.38;;;5.76;100.00
30636;BME280;17400;52.392;9.750;2023-11-18T01:52:15;101829.72;;;5.77;100.00
30636;BME280;17400;52.392;9.750;2023-11-18T01:54:45;101843.28;;;5.86;100.00
30636;BME280;17400;52.392;9.750;2023-11-18T01:57:13;101837.09;;;5.95;100.00
30636;BME280;17400;52.392;9.750;2023-11-18T01:59:42;101835.16;;;6.07;100.00
30636;BME280;17400;52.392;9.750;2023-11-18T02:02:10;101838.81;;;6.06;100.00
30636;BME280;17400;52.392;9.750;2023-11-18T02:04:39;101847.91;;;6.05;100.00
30636;BME280;17400;52.392;9.750;2023-11-18T02:07:07;101839.84;;;6.05;100.00
30636;BME280;17400;52.392;9.750;2023-11-18T02:09:36;101849.47;;;6.07;100.00
30636;BME280;17400;52.392;9.750;2023-11-18T02:12:15;101847.03;;;6.04;100.00
30636;BME280;17400;52.392;9.750;2023-11-18T02:14:45;101847.91;;;6.05;100.00
30636;BME280;17400;52.392;9.750;2023-11-18T02:17:14;101839.94;;;6.03;100.00
30636;BME280;17400;52.392;9.750;2023-11-18T02:19:45;101856.63;;;5.97;100.00
30636;BME280;17400;52.392;9.750;2023-11-18T02:22:14;101843.31;;;5.95;100.00
30636;BME280;17400;52.392;9.750;2023-11-18T02:24:42;101846.03;;;5.95;100.00
30636;BME280;17400;52.392;9.750;2023-11-18T02:27:12;101842.75;;;5.92;100.00
30636;BME280;17400;52.392;9.750;2023-11-18T02:29:42;101850.09;;;5.90;100.00
30636;BME280;17400;52.392;9.750;2023-11-18T02:32:17;101858.28;;;5.88;100.00
30636;BME280;17400;52.392;9.750;2023-11-18T02:35:02;101852.91;;;5.88;100.00
30636;BME280;17400;52.392;9.750;2023-11-18T02:37:39;101857.47;;;5.88;100.00
30636;BME280;17400;52.392;9.750;2023-11-18T02:40:12;101863.81;;;5.87;100.00
30636;BME280;17400;52.392;9.750;2023-11-18T02:42:44;101856.59;;;5.87;100.00
30636;BME280;17400;52.392;9.750;2023-11-18T02:45:15;101855.75;;;5.87;100.00
30636;BME280;17400;52.392;9.750;2023-11-18T02:47:44;101854.03;;;5.86;100.00
30636;BME280;17400;52.392;9.750;2023-11-18T02:50:12;101859.41;;;5.86;100.00
30636;BME280;17400;52.392;9.750;2023-11-18T02:52:41;101854.03;;;5.86;100.00
30636;BME280;17400;52.392;9.750;2023-11-18T02:55:10;101855.88;;;5.85;100.00
30636;BME280;17400;52.392;9.750;2023-11-18T02:57:38;101855.16;;;5.83;100.00
30636;BME280;17400;52.392;9.750;2023-11-18T03:00:08;101853.75;;;5.89;100.00
30636;BME280;17400;52.392;9.750;2023-11-18T03:02:44;101847.16;;;5.93;100.00
30636;BME280;17400;52.392;9.750;2023-11-18T03:05:12;101835.53;;;5.92;100.00
30636;BME280;17400;52.392;9.750;2023-11-18T03:07:41;101834.53;;;5.93;100.00
30636;BME280;17400;52.392;9.750;2023-11-18T03:10:11;101830.16;;;5.92;100.00
30636;BME280;17400;52.392;9.750;2023-11-18T03:12:47;101833.00;;;6.00;100.00
30636;BME280;17400;52.392;9.750;2023-11-18T03:15:17;101836.28;;;6.04;100.00
30636;BME280;17400;52.392;9.750;2023-11-18T03:17:46;101836.56;;;6.01;100.00
30636;BME280;17400;52.392;9.750;2023-11-18T03:20:15;101839.25;;;6.01;100.00
30636;BME280;17400;52.392;9.750;2023-11-18T03:22:44;101841.94;;;6.01;100.00
30636;BME280;17400;52.392;9.750;2023-11-18T03:25:12;101845.06;;;6.06;100.00
30636;BME280;17400;52.392;9.750;2023-11-18T03:27:40;101847.91;;;6.14;100.00
30636;BME280;17400;52.392;9.750;2023-11-18T03:30:09;101845.94;;;6.16;100.00
30636;BME280;17400;52.392;9.750;2023-11-18T03:32:40;101849.88;;;6.12;100.00
30636;BME280;17400;52.392;9.750;2023-11-18T03:35:08;101847.59;;;6.17;100.00
30636;BME280;17400;52.392;9.750;2023-11-18T03:37:37;101843.78;;;6.20;100.00
30636;BME280;17400;52.392;9.750;2023-11-18T03:40:09;101847.59;;;6.17;100.00
30636;BME280;17400;52.392;9.750;2023-11-18T03:42:38;101846.63;;;6.19;100.00
30636;BME280;17400;52.392;9.750;2023-11-18T03:45:07;101846.47;;;6.20;100.00
30636;BME280;17400;52.392;9.750;2023-11-18T03:47:36;101843.38;;;6.25;100.00
30636;BME280;17400;52.392;9.750;2023-11-18T03:50:06;101856.53;;;6.28;100.00
30636;BME280;17400;52.392;9.750;2023-11-18T03:52:36;101851.72;;;6.22;100.00
30636;BME280;17400;52.392;9.750;2023-11-18T03:55:05;101851.16;;;6.28;100.00
30636;BME280;17400;52.392;9.750;2023-11-18T03:57:33;101850.59;;;6.34;100.00
30636;BME280;17400;52.392;9.750;2023-11-18T04:00:02;101850.16;;;6.39;100.00
30636;BME280;17400;52.392;9.750;2023-11-18T04:02:31;101844.94;;;6.37;100.00
30636;BME280;17400;52.392;9.750;2023-11-18T04:05:01;101840.28;;;6.39;100.00
30636;BME280;17400;52.392;9.750;2023-11-18T04:07:31;101842.09;;;6.39;100.00
30636;BME280;17400;52.392;9.750;2023-11-18T04:09:59;101841.84;;;6.42;100.00
30636;BME280;17400;52.392;9.750;2023-11-18T04:12:27;101837.28;;;6.42;100.00
30636;BME280;17400;52.392;9.750;2023-11-18T04:14:57;101831.75;;;6.44;100.00
30636;BME280;17400;52.392;9.750;2023-11-18T04:17:24;101837.44;;;6.41;100.00
30636;BME280;17400;52.392;9.750;2023-11-18T04:19:55;101831.50;;;6.47;100.00
30636;BME280;17400;52.392;9.750;2023-11-18T04:22:23;101829.50;;;6.49;100.00
30636;BME280;17400;52.392;9.750;2023-11-18T04:24:52;101825.81;;;6.50;100.00
30636;BME280;17400;52.392;9.750;2023-11-18T04:27:22;101816.78;;;6.51;100.00
30636;BME280;17400;52.392;9.750;2023-11-18T04:29:50;101821.28;;;6.50;100.00
30636;BME280;17400;52.392;9.750;2023-11-18T04:32:18;101830.34;;;6.49;100.00
30636;BME280;17400;52.392;9.750;2023-11-18T04:34:46;101825.09;;;6.48;100.00
30636;BME280;17400;52.392;9.750;2023-11-18T04:37:16;101825.56;;;6.43;100.00
30636;BME280;17400;52.392;9.750;2023-11-18T04:39:43;101816.50;;;6.44;100.00
30636;BME280;17400;52.392;9.750;2023-11-18T04:42:13;101818.75;;;6.49;100.00
30636;BME280;17400;52.392;9.750;2023-11-18T04:44:42;101815.06;;;6.50;100.00
30636;BME280;17400;52.392;9.750;2023-11-18T04:47:09;101813.50;;;6.47;100.00
30636;BME280;17400;52.392;9.750;2023-11-18T04:49:38;101802.91;;;6.46;100.00
30636;BME280;17400;52.392;9.750;2023-11-18T04:52:06;101805.56;;;6.36;100.00
30636;BME280;17400;52.392;9.750;2023-11-18T04:54:34;101814.50;;;6.37;100.00
30636;BME280;17400;52.392;9.750;2023-11-18T04:57:02;101810.69;;;6.39;100.00
30636;BME280;17400;52.392;9.750;2023-11-18T04:59:32;101801.34;;;6.43;100.00
30636;BME280;17400;52.392;9.750;2023-11-18T05:02:00;101802.03;;;6.45;100.00
30636;BME280;17400;52.392;9.750;2023-11-18T05:04:29;101796.38;;;6.48;100.00
30636;BME280;17400;52.392;9.750;2023-11-18T05:06:58;101800.75;;;6.49;100.00
30636;BME280;17400;52.392;9.750;2023-11-18T05:09:26;101806.28;;;6.48;100.00
30636;BME280;17400;52.392;9.750;2023-11-18T05:11:53;101803.44;;;6.49;100.00
30636;BME280;17400;52.392;9.750;2023-11-18T05:14:21;101798.06;;;6.40;100.00
30636;BME280;17400;52.392;9.750;2023-11-18T05:16:50;101800.63;;;6.41;100.00
30636;BME280;17400;52.392;9.750;2023-11-18T05:19:19;101805.03;;;6.42;100.00
30636;BME280;17400;52.392;9.750;2023-11-18T05:21:50;101799.34;;;6.45;100.00
30636;BME280;17400;52.392;9.750;2023-11-18T05:24:18;101793.84;;;6.47;100.00
30636;BME280;17400;52.392;9.750;2023-11-18T05:26:46;101794.69;;;6.47;100.00
30636;BME280;17400;52.392;9.750;2023-11-18T05:29:14;101786.59;;;6.47;100.00
30636;BME280;17400;52.392;9.750;2023-11-18T05:31:43;101796.38;;;6.48;100.00
30636;BME280;17400;52.392;9.750;2023-11-18T05:34:13;101791.16;;;6.47;100.00
30636;BME280;17400;52.392;9.750;2023-11-18T05:36:41;101795.09;;;6.43;100.00
30636;BME280;17400;52.392;9.750;2023-11-18T05:39:09;101787.03;;;6.43;100.00
30636;BME280;17400;52.392;9.750;2023-11-18T05:41:37;101787.88;;;6.43;100.00
30636;BME280;17400;52.392;9.750;2023-11-18T05:44:06;101777.41;;;6.40;100.00
30636;BME280;17400;52.392;9.750;2023-11-18T05:46:36;101770.75;;;6.34;100.00
30636;BME280;17400;52.392;9.750;2023-11-18T05:49:05;101759.84;;;6.36;100.00
30636;BME280;17400;52.392;9.750;2023-11-18T05:51:36;101759.69;;;6.38;100.00
30636;BME280;17400;52.392;9.750;2023-11-18T05:54:04;101763.94;;;6.40;100.00
30636;BME280;17400;52.392;9.750;2023-11-18T05:56:33;101762.97;;;6.41;100.00
30636;BME280;17400;52.392;9.750;2023-11-18T05:59:01;101765.81;;;6.40;100.00
30636;BME280;17400;52.392;9.750;2023-11-18T06:01:30;101758.56;;;6.40;100.00
30636;BME280;17400;52.392;9.750;2023-11-18T06:03:59;101771.91;;;6.32;100.00
30636;BME280;17400;52.392;9.750;2023-11-18T06:06:27;101767.66;;;6.29;100.00
30636;BME280;17400;52.392;9.750;2023-11-18T06:08:57;101764.13;;;6.29;100.00
30636;BME280;17400;52.392;9.750;2023-11-18T06:11:31;101767.81;;;6.28;100.00
30636;BME280;17400;52.392;9.750;2023-11-18T06:13:59;101765.81;;;6.30;100.00
30636;BME280;17400;52.392;9.750;2023-11-18T06:16:27;101767.09;;;6.26;100.00
30636;BME280;17400;52.392;9.750;2023-11-18T06:18:57;101770.78;;;6.25;100.00
30636;BME280;17400;52.392;9.750;2023-11-18T06:21:26;101768.63;;;6.28;100.00
30636;BME280;17400;52.392;9.750;2023-11-18T06:23:59;101770.19;;;6.31;100.00
30636;BME280;17400;52.392;9.750;2023-11-18T06:26:27;101762.69;;;6.34;100.00
30636;BME280;17400;52.392;9.750;2023-11-18T06:28:55;101766.38;;;6.33;100.00
30636;BME280;17400;52.392;9.750;2023-11-18T06:31:24;101772.75;;;6.32;100.00
30636;BME280;17400;52.392;9.750;2023-11-18T06:33:52;101776.59;;;6.30;100.00
30636;BME280;17400;52.392;9.750;2023-11-18T06:36:21;101781.97;;;6.30;100.00
30636;BME280;17400;52.392;9.750;2023-11-18T06:38:50;101794.69;;;6.28;100.00
30636;BME280;17400;52.392;9.750;2023-11-18T06:41:21;101799.38;;;6.26;100.00
30636;BME280;17400;52.392;9.750;2023-11-18T06:43:52;101796.38;;;6.19;100.00
30636;BME280;17400;52.392;9.750;2023-11-18T06:46:28;101798.09;;;6.20;100.00
30636;BME280;17400;52.392;9.750;2023-11-18T06:49:02;101798.38;;;6.17;100.00
30636;BME280;17400;52.392;9.750;2023-11-18T06:51:34;101797.53;;;6.16;100.00
30636;BME280;17400;52.392;9.750;2023-11-18T06:54:05;101799.81;;;6.11;100.00
30636;BME280;17400;52.392;9.750;2023-11-18T06:56:38;101795.25;;;6.12;100.00
30636;BME280;17400;52.392;9.750;2023-11-18T06:59:09;101802.19;;;6.14;100.00
30636;BME280;17400;52.392;9.750;2023-11-18T07:01:40;101809.44;;;6.14;100.00
30636;BME280;17400;52.392;9.750;2023-11-18T07:04:09;101806.28;;;6.19;100.00
30636;BME280;17400;52.392;9.750;2023-11-18T07:06:37;101805.16;;;6.21;100.00
30636;BME280;17400;52.392;9.750;2023-11-18T07:09:07;101811.81;;;6.27;100.00
30636;BME280;17400;52.392;9.750;2023-11-18T07:11:41;101810.81;;;6.28;100.00
30636;BME280;17400;52.392;9.750;2023-11-18T07:14:09;101813.38;;;6.29;100.00
30636;BME280;17400;52.392;9.750;2023-11-18T07:16:38;101804.16;;;6.32;100.00
30636;BME280;17400;52.392;9.750;2023-11-18T07:19:07;101811.97;;;6.25;100.00
30636;BME280;17400;52.392;9.750;2023-11-18T07:21:37;101813.38;;;6.29;100.00
30636;BME280;17400;52.392;9.750;2023-11-18T07:24:05;101815.50;;;6.36;100.00
30636;BME280;17400;52.392;9.750;2023-11-18T07:26:34;101813.09;;;6.42;100.00
30636;BME280;17400;52.392;9.750;2023-11-18T07:29:03;101797.53;;;6.46;100.00
30636;BME280;17400;52.392;9.750;2023-11-18T07:31:34;101791.69;;;6.50;100.00
30636;BME280;17400;52.392;9.750;2023-11-18T07:34:03;101798.06;;;6.49;100.00
30636;BME280;17400;52.392;9.750;2023-11-18T07:36:32;101803.31;;;6.41;100.00
30636;BME280;17400;52.392;9.750;2023-11-18T07:39:00;101800.91;;;6.48;100.00
30636;BME280;17400;52.392;9.750;2023-11-18T07:41:30;101793.69;;;6.48;100.00
30636;BME280;17400;52.392;9.750;2023-11-18T07:44:00;101803.44;;;6.49;100.00
30636;BME280;17400;52.392;9.750;2023-11-18T07:46:30;101812.53;;;6.48;100.00
30636;BME280;17400;52.392;9.750;2023-11-18T07:48:59;101808.28;;;6.46;100.00
30636;BME280;17400;52.392;9.750;2023-11-18T07:51:28;101803.31;;;6.41;100.00
30636;BME280;17400;52.392;9.750;2023-11-18T07:53:56;101809.97;;;6.37;100.00
30636;BME280;17400;52.392;9.750;2023-11-18T07:56:25;101810.53;;;6.41;100.00
30636;BME280;17400;52.392;9.750;2023-11-18T07:58:54;101806.72;;;6.43;100.00
30636;BME280;17400;52.392;9.750;2023-11-18T08:01:22;101820.16;;;6.43;100.00
30636;BME280;17400;52.392;9.750;2023-11-18T08:03:51;101807.72;;;6.42;100.00
30636;BME280;17400;52.392;9.750;2023-11-18T08:06:19;101808.97;;;6.48;100.00
30636;BME280;17400;52.392;9.750;2023-11-18T08:08:47;101804.16;;;6.52;100.00
30636;BME280;17400;52.392;9.750;2023-11-18T08:11:16;101809.66;;;6.60;100.00
30636;BME280;17400;52.392;9.750;2023-11-18T08:13:44;101814.19;;;6.69;100.00
30636;BME280;17400;52.392;9.750;2023-11-18T08:16:14;101805.53;;;6.75;100.00
30636;BME280;17400;52.392;9.750;2023-11-18T08:18:42;101797.88;;;6.80;100.00
30636;BME280;17400;52.392;9.750;2023-11-18T08:21:13;101803.69;;;6.76;100.00
30636;BME280;17400;52.392;9.750;2023-11-18T08:23:40;101804.25;;;6.79;100.00
30636;BME280;17400;52.392;9.750;2023-11-18T08:26:11;101783.84;;;6.77;100.00
30636;BME280;17400;52.392;9.750;2023-11-18T08:28:39;101776.09;;;6.74;100.00
30636;BME280;17400;52.392;9.750;2023-11-18T08:31:07;101769.72;;;6.75;100.00
30636;BME280;17400;52.392;9.750;2023-11-18T08:33:35;101778.78;;;6.74;100.00
30636;BME280;17400;52.392;9.750;2023-11-18T08:36:04;101769.25;;;6.79;100.00
30636;BME280;17400;52.392;9.750;2023-11-18T08:38:35;101774.94;;;6.76;100.00
30636;BME280;17400;52.392;9.750;2023-11-18T08:41:04;101766.88;;;6.76;100.00
30636;BME280;17400;52.392;9.750;2023-11-18T08:43:35;101765.47;;;6.72;100.00
30636;BME280;17400;52.392;9.750;2023-11-18T08:46:03;101770.53;;;6.75;100.00
30636;BME280;17400;52.392;9.750;2023-11-18T08:48:36;101769.66;;;6.84;100.00
30636;BME280;17400;52.392;9.750;2023-11-18T08:51:05;101779.28;;;6.87;100.00
30636;BME280;17400;52.392;9.750;2023-11-18T08:53:36;101777.44;;;6.88;100.00
30636;BME280;17400;52.392;9.750;2023-11-18T08:56:08;101791.03;;;6.96;100.00
30636;BME280;17400;52.392;9.750;2023-11-18T08:58:42;101786.66;;;6.95;100.00
30636;BME280;17400;52.392;9.750;2023-11-18T09:01:11;101797.53;;;7.03;100.00
30636;BME280;17400;52.392;9.750;2023-11-18T09:03:43;101793.69;;;7.06;100.00
30636;BME280;17400;52.392;9.750;2023-11-18T09:06:15;101802.50;;;6.98;100.00
30636;BME280;17400;52.392;9.750;2023-11-18T09:08:54;101788.59;;;7.03;100.00
30636;BME280;17400;52.392;9.750;2023-11-18T09:11:24;101786.50;;;6.96;100.00
30636;BME280;17400;52.392;9.750;2023-11-18T09:13:56;101782.97;;;6.96;100.00
30636;BME280;17400;52.392;9.750;2023-11-18T09:16:28;101782.09;;;6.95;100.00
30636;BME280;17400;52.392;9.750;2023-11-18T09:19:00;101776.41;;;6.98;100.00
30636;BME280;17400;52.392;9.750;2023-11-18T09:21:31;101766.34;;;7.00;100.00
30636;BME280;17400;52.392;9.750;2023-11-18T09:24:05;101755.84;;;7.07;100.00
30636;BME280;17400;52.392;9.750;2023-11-18T09:26:38;101760.25;;;6.98;100.00
30636;BME280;17400;52.392;9.750;2023-11-18T09:29:06;101755.59;;;7.00;100.00
30636;BME280;17400;52.392;9.750;2023-11-18T09:31:36;101765.25;;;6.93;100.00
30636;BME280;17400;52.392;9.750;2023-11-18T09:34:04;101759.00;;;6.93;100.00
30636;BME280;17400;52.392;9.750;2023-11-18T09:36:34;101757.19;;;6.93;100.00
30636;BME280;17400;52.392;9.750;2023-11-18T09:39:05;101754.75;;;7.00;100.00
30636;BME280;17400;52.392;9.750;2023-11-18T09:41:37;101751.81;;;6.93;100.00
30636;BME280;17400;52.392;9.750;2023-11-18T09:44:08;101757.88;;;6.95;100.00
30636;BME280;17400;52.392;9.750;2023-11-18T09:46:41;101767.13;;;6.83;100.00
30636;BME280;17400;52.392;9.750;2023-11-18T09:49:19;101758.66;;;6.68;100.00
30636;BME280;17400;52.392;9.750;2023-11-18T09:51:57;101759.22;;;6.81;100.00
30636;BME280;17400;52.392;9.750;2023-11-18T09:54:31;101763.97;;;6.88;100.00
30636;BME280;17400;52.392;9.750;2023-11-18T09:57:08;101769.97;;;6.81;100.00
30636;BME280;17400;52.392;9.750;2023-11-18T09:59:44;101772.25;;;6.76;100.00
30636;BME280;17400;52.392;9.750;2023-11-18T10:02:23;101766.69;;;6.88;100.00
30636;BME280;17400;52.392;9.750;2023-11-18T10:04:53;101756.16;;;7.04;100.00
30636;BME280;17400;52.392;9.750;2023-11-18T10:07:25;101742.78;;;7.12;100.00
30636;BME280;17400;52.392;9.750;2023-11-18T10:09:56;101733.63;;;7.33;100.00
30636;BME280;17400;52.392;9.750;2023-11-18T10:12:25;101716.47;;;7.52;100.00
30636;BME280;17400;52.392;9.750;2023-11-18T10:14:54;101712.31;;;7.58;100.00
30636;BME280;17400;52.392;9.750;2023-11-18T10:17:23;101712.84;;;7.61;100.00
30636;BME280;17400;52.392;9.750;2023-11-18T10:19:54;101717.84;;;7.56;100.00
30636;BME280;17400;52.392;9.750;2023-11-18T10:22:24;101720.38;;;7.58;100.00
30636;BME280;17400;52.392;9.750;2023-11-18T10:24:56;101713.69;;;7.62;100.00
30636;BME280;17400;52.392;9.750;2023-11-18T10:27:29;101710.84;;;7.81;100.00
30636;BME280;17400;52.392;9.750;2023-11-18T10:30:02;101707.22;;;7.91;100.00
30636;BME280;17400;52.392;9.750;2023-11-18T10:32:31;101707.53;;;7.88;100.00
30636;BME280;17400;52.392;9.750;2023-11-18T10:35:04;101704.69;;;7.89;100.00
30636;BME280;17400;52.392;9.750;2023-11-18T10:37:33;101705.22;;;7.75;100.00
30636;BME280;17400;52.392;9.750;2023-11-18T10:40:11;101696.84;;;7.60;100.00
30636;BME280;17400;52.392;9.750;2023-11-18T10:42:44;101691.91;;;7.55;100.00
30636;BME280;17400;52.392;9.750;2023-11-18T10:45:23;101700.38;;;7.60;100.00
30636;BME280;17400;52.392;9.750;2023-11-18T10:47:54;101694.19;;;7.50;100.00
30636;BME280;17400;52.392;9.750;2023-11-18T10:50:25;101679.75;;;7.51;100.00
30636;BME280;17400;52.392;9.750;2023-11-18T10:53:00;101670.50;;;7.54;100.00
30636;BME280;17400;52.392;9.750;2023-11-18T10:55:37;101673.13;;;7.63;100.00
30636;BME280;17400;52.392;9.750;2023-11-18T10:58:04;101656.09;;;7.63;100.00
30636;BME280;17400;52.392;9.750;2023-11-18T11:00:52;101649.00;;;7.62;100.00
30636;BME280;17400;52.392;9.750;2023-11-18T11:03:22;101643.00;;;7.68;100.00
30636;BME280;17400;52.392;9.750;2023-11-18T11:05:53;101645.09;;;7.74;100.00
30636;BME280;17400;52.392;9.750;2023-11-18T11:08:22;101641.31;;;7.85;100.00
30636;BME280;17400;52.392;9.750;2023-11-18T11:11:07;101632.00;;;7.79;100.00
30636;BME280;17400;52.392;9.750;2023-11-18T11:13:45;101625.84;;;7.69;100.00
30636;BME280;17400;52.392;9.750;2023-11-18T11:16:18;101614.59;;;7.74;100.00
30636;BME280;17400;52.392;9.750;2023-11-18T11:18:50;101598.41;;;7.74;100.00
30636;BME280;17400;52.392;9.750;2023-11-18T11:21:25;101613.03;;;7.71;100.00
30636;BME280;17400;52.392;9.750;2023-11-18T11:24:02;101616.22;;;7.84;100.00
30636;BME280;17400;52.392;9.750;2023-11-18T11:26:41;101611.09;;;7.81;100.00
30636;BME280;17400;52.392;9.750;2023-11-18T11:29:21;101617.66;;;7.79;100.00
30636;BME280;17400;52.392;9.750;2023-11-18T11:32:00;101611.97;;;7.82;100.00
30636;BME280;17400;52.392;9.750;2023-11-18T11:34:31;101599.38;;;7.91;100.00
30636;BME280;17400;52.392;9.750;2023-11-18T11:37:01;101596.00;;;7.89;100.00
30636;BME280;17400;52.392;9.750;2023-11-18T11:39:30;101605.09;;;7.88;100.00
30636;BME280;17400;52.392;9.750;2023-11-18T11:42:05;101604.16;;;7.97;100.00
30636;BME280;17400;52.392;9.750;2023-11-18T11:44:36;101601.91;;;7.92;100.00
30636;BME280;17400;52.392;9.750;2023-11-18T11:47:12;101593.69;;;7.94;100.00
30636;BME280;17400;52.392;9.750;2023-11-18T11:49:50;101606.47;;;7.92;100.00
30636;BME280;17400;52.392;9.750;2023-11-18T11:52:29;101602.94;;;7.91;100.00
30636;BME280;17400;52.392;9.750;2023-11-18T11:55:05;101597.75;;;7.72;100.00
30636;BME280;17400;52.392;9.750;2023-11-18T11:57:41;101583.63;;;7.78;100.00
30636;BME280;17400;52.392;9.750;2023-11-18T12:00:12;101561.00;;;7.71;100.00
30636;BME280;17400;52.392;9.750;2023-11-18T12:02:51;101564.28;;;7.82;100.00
30636;BME280;17400;52.392;9.750;2023-11-18T12:05:23;101559.34;;;7.78;100.00
30636;BME280;17400;52.392;9.750;2023-11-18T12:07:54;101554.47;;;7.73;100.00
30636;BME280;17400;52.392;9.750;2023-11-18T12:10:26;101547.38;;;7.72;100.00
30636;BME280;17400;52.392;9.750;2023-11-18T12:13:08;101553.66;;;7.81;100.00
30636;BME280;17400;52.392;9.750;2023-11-18T12:15:50;101559.69;;;7.75;100.00
30636;BME280;17400;52.392;9.750;2023-11-18T12:18:25;101562.75;;;7.80;100.00
30636;BME280;17400;52.392;9.750;2023-11-18T12:20:53;101559.44;;;7.86;100.00
30636;BME280;17400;52.392;9.750;2023-11-18T12:23:23;101552.50;;;7.83;100.00
30636;BME280;17400;52.392;9.750;2023-11-18T12:25:54;101546.69;;;7.70;100.00
30636;BME280;17400;52.392;9.750;2023-11-18T12:28:29;101543.78;;;7.63;100.00
30636;BME280;17400;52.392;9.750;2023-11-18T12:31:02;101543.78;;;7.63;100.00
30636;BME280;17400;52.392;9.750;2023-11-18T12:34:04;101549.28;;;7.80;100.00
30636;BME280;17400;52.392;9.750;2023-11-18T12:37:03;101544.41;;;7.83;100.00
30636;BME280;17400;52.392;9.750;2023-11-18T12:42:59;101546.69;;;7.70;100.00
30636;BME280;17400;52.392;9.750;2023-11-18T12:45:44;101552.75;;;7.72;100.00
30636;BME280;17400;52.392;9.750;2023-11-18T12:48:14;101537.75;;;7.70;100.00
30636;BME280;17400;52.392;9.750;2023-11-18T12:50:44;101525.75;;;7.64;100.00
30636;BME280;17400;52.392;9.750;2023-11-18T12:53:13;101529.16;;;7.66;100.00
30636;BME280;17400;52.392;9.750;2023-11-18T12:55:46;101528.78;;;7.61;100.00
30636;BME280;17400;52.392;9.750;2023-11-18T12:58:15;101527.28;;;7.66;100.00
30636;BME280;17400;52.392;9.750;2023-11-18T13:00:45;101521.69;;;7.60;100.00
30636;BME280;17400;52.392;9.750;2023-11-18T13:03:13;101525.75;;;7.64;100.00
30636;BME280;17400;52.392;9.750;2023-11-18T13:05:43;101523.38;;;7.61;100.00
30636;BME280;17400;52.392;9.750;2023-11-18T13:08:12;101523.59;;;7.67;100.00
30636;BME280;17400;52.392;9.750;2023-11-18T13:10:42;101513.44;;;7.61;100.00